Time;durP1;ratioP1;P1;durP2;ratioP2;P2;SDS_P1;SDS_P2;PMS_P1;PMS_P2;Temp;Humidity;BMP_temperature;BMP_pressure;BME280_temperature;BME280_humidity;BME280_pressure;Samples;Min_cycle;Max_cycle;Signal;HPM_P1;HPM_P2
2021/01/30 00:01:12;;;;;;;59.10;3.20;;;7.00;10.60;;;;;;5095178;28;20839;-70
2021/01/30 00:03:38;;;;;;;57.90;2.83;;;7.00;12.10;;;;;;5095082;28;20473;-70
2021/01/30 00:06:05;;;;;;;59.00;3.30;;;6.90;14.40;;;;;;5094821;28;20452;-69
2021/01/30 00:08:32;;;;;;;56.83;3.27;;;7.00;12.20;;;;;;5094775;28;20497;-70
2021/01/30 00:10:58;;;;;;;57.77;2.83;;;6.90;12.10;;;;;;5095198;28;20509;-70
2021/01/30 00:13:24;;;;;;;55.85;2.72;;;6.90;9.90;;;;;;5094820;28;20478;-71
2021/01/30 00:15:52;;;;;;;55.97;2.77;;;7.00;9.30;;;;;;5094791;28;20201;-69
2021/01/30 00:18:18;;;;;;;56.57;3.23;;;7.00;7.90;;;;;;5093250;28;20500;-71
2021/01/30 00:20:44;;;;;;;59.10;2.80;;;6.90;1.50;;;;;;5079560;28;20481;-70
2021/01/30 00:23:11;;;;;;;56.20;2.80;;;6.90;1.00;;;;;;5073921;28;20957;-70
2021/01/30 00:25:38;;;;;;;56.13;2.83;;;6.90;1.00;;;;;;5073881;28;20449;-70
2021/01/30 00:28:06;;;;;;;59.60;3.40;;;6.90;2.70;;;;;;5074315;28;20451;-71
2021/01/30 00:30:34;;;;;;;60.10;2.70;;;6.90;1.40;;;;;;5074080;28;20490;-71
2021/01/30 00:33:02;;;;;;;60.57;2.70;;;6.80;1.00;;;;;;5074004;28;20466;-71
2021/01/30 00:35:31;;;;;;;57.20;3.13;;;6.80;2.30;;;;;;5074145;28;20538;-71
2021/01/30 00:37:58;;;;;;;59.63;2.73;;;6.80;2.30;;;;;;5073868;28;20535;-70
2021/01/30 00:40:24;;;;;;;55.97;2.73;;;6.80;1.00;;;;;;5073740;28;20512;-69
2021/01/30 00:42:51;;;;;;;57.67;2.80;;;6.80;1.00;;;;;;5073592;28;20445;-71
2021/01/30 00:45:20;;;;;;;56.40;3.20;;;6.80;1.00;;;;;;5073745;28;20465;-71
2021/01/30 00:47:46;;;;;;;56.53;2.70;;;6.80;1.00;;;;;;5073643;28;20536;-70
2021/01/30 00:50:15;;;;;;;59.40;2.67;;;6.90;1.00;;;;;;5075585;28;20518;-71
2021/01/30 00:52:42;;;;;;;56.40;2.83;;;6.90;1.00;;;;;;5093547;28;20273;-70
2021/01/30 00:55:10;;;;;;;55.77;2.27;;;6.80;1.00;;;;;;5093888;28;20468;-71
2021/01/30 00:57:36;;;;;;;56.87;3.00;;;6.90;1.00;;;;;;5093117;28;20448;-71
2021/01/30 01:00:07;;;;;;;59.50;3.07;;;6.90;1.00;;;;;;5093770;28;20857;-70
2021/01/30 01:02:35;;;;;;;56.90;2.60;;;6.90;1.00;;;;;;5093552;28;20540;-71
2021/01/30 01:05:02;;;;;;;56.50;2.30;;;6.80;1.00;;;;;;5093355;28;20625;-70
2021/01/30 01:07:29;;;;;;;56.50;2.67;;;6.80;1.00;;;;;;5093386;28;20451;-70
2021/01/30 01:09:55;;;;;;;59.10;2.70;;;6.80;1.00;;;;;;5093632;28;20448;-70
2021/01/30 01:12:22;;;;;;;59.70;2.90;;;6.80;1.00;;;;;;5093223;28;20449;-70
2021/01/30 01:14:48;;;;;;;55.90;2.60;;;6.80;1.00;;;;;;5093324;28;20473;-70
2021/01/30 01:17:14;;;;;;;57.30;2.30;;;6.70;1.00;;;;;;5093729;28;20211;-70
2021/01/30 01:19:41;;;;;;;56.03;2.35;;;6.60;1.00;;;;;;5083841;28;20452;-70
2021/01/30 01:22:07;;;;;;;57.37;2.67;;;6.50;1.00;;;;;;5083500;28;20247;-71
2021/01/30 01:24:34;;;;;;;58.40;2.70;;;6.40;1.00;;;;;;5093327;28;20538;-70
2021/01/30 01:27:00;;;;;;;56.97;2.80;;;6.30;1.00;;;;;;5093124;28;20682;-70
2021/01/30 01:29:27;;;;;;;56.10;2.57;;;6.30;1.00;;;;;;5093127;28;20444;-70
2021/01/30 01:31:54;;;;;;;59.03;2.67;;;6.30;1.00;;;;;;5092978;28;20454;-70
2021/01/30 01:34:22;;;;;;;57.50;2.50;;;6.20;1.00;;;;;;5092709;28;20256;-70
2021/01/30 01:36:56;;;;;;;56.00;2.47;;;6.20;1.00;;;;;;5093137;28;20535;-71
2021/01/30 01:39:23;;;;;;;59.05;2.53;;;6.20;1.00;;;;;;5093033;28;20202;-71
2021/01/30 01:42:04;;;;;;;58.80;2.67;;;6.20;1.00;;;;;;5092713;28;20251;-70
2021/01/30 01:44:31;;;;;;;59.40;2.90;;;6.20;1.00;;;;;;5092784;28;20842;-70
2021/01/30 01:46:57;;;;;;;57.10;2.50;;;6.30;1.00;;;;;;5092708;28;20619;-69
2021/01/30 01:49:30;;;;;;;57.42;2.47;;;6.30;1.00;;;;;;5092555;28;20444;-70
2021/01/30 01:52:07;;;;;;;56.23;2.70;;;6.40;1.00;;;;;;5091156;28;20202;-70
2021/01/30 01:54:36;;;;;;;56.57;2.60;;;6.40;1.00;;;;;;5092682;28;20507;-70
2021/01/30 01:57:10;;;;;;;57.37;3.10;;;6.50;1.00;;;;;;5092528;28;20449;-70
2021/01/30 01:59:41;;;;;;;59.60;3.17;;;6.50;1.00;;;;;;5092641;28;20450;-70
2021/01/30 02:02:08;;;;;;;58.23;2.60;;;6.60;1.00;;;;;;5092485;28;20453;-70
2021/01/30 02:04:35;;;;;;;57.30;2.63;;;6.60;1.00;;;;;;5092447;28;20480;-70
2021/01/30 02:07:02;;;;;;;56.23;2.30;;;6.60;1.00;;;;;;5092471;28;20444;-70
2021/01/30 02:09:28;;;;;;;56.72;2.67;;;6.70;1.00;;;;;;5092425;28;20538;-71
2021/01/30 02:12:03;;;;;;;56.57;2.57;;;6.70;1.00;;;;;;5092323;28;20243;-70
2021/01/30 02:14:32;;;;;;;58.73;2.67;;;6.80;1.00;;;;;;5092357;28;20463;-70
2021/01/30 02:17:07;;;;;;;58.47;4.40;;;6.80;1.00;;;;;;5091949;28;20460;-70
2021/01/30 02:20:17;;;;;;;56.80;2.33;;;6.80;1.00;;;;;;5091955;28;20503;-70
2021/01/30 02:23:04;;;;;;;56.57;2.50;;;6.80;1.00;;;;;;5091040;28;20459;-71
2021/01/30 02:26:16;;;;;;;57.50;2.80;;;6.80;1.00;;;;;;5092045;28;20557;-70
2021/01/30 02:28:54;;;;;;;56.93;2.87;;;6.90;1.00;;;;;;5055596;28;20476;-70
2021/01/30 02:31:37;;;;;;;56.30;2.63;;;7.00;1.00;;;;;;5092046;28;20483;-70
2021/01/30 02:34:41;;;;;;;57.70;2.30;;;6.90;1.00;;;;;;5091568;28;20901;-70
2021/01/30 02:37:13;;;;;;;58.47;2.40;;;6.80;1.00;;;;;;5086615;28;20459;-70
2021/01/30 02:39:46;;;;;;;55.70;2.57;;;6.90;1.00;;;;;;5091931;28;20686;-70
2021/01/30 02:42:17;;;;;;;57.37;2.70;;;6.80;1.00;;;;;;5091844;28;20447;-70
2021/01/30 02:44:50;;;;;;;57.07;2.70;;;6.80;1.00;;;;;;5091786;28;20524;-70
2021/01/30 02:47:21;;;;;;;57.00;2.40;;;6.80;1.00;;;;;;5091573;28;20456;-70
2021/01/30 02:49:57;;;;;;;57.87;2.20;;;6.80;1.00;;;;;;5091835;28;20627;-70
2021/01/30 02:52:27;;;;;;;55.90;2.30;;;6.80;1.00;;;;;;5090325;28;20730;-70
2021/01/30 02:54:56;;;;;;;55.60;2.50;;;6.80;1.00;;;;;;5091434;28;20464;-70
2021/01/30 02:57:24;;;;;;;58.20;2.80;;;6.80;1.00;;;;;;5091688;28;20810;-70
2021/01/30 02:59:54;;;;;;;56.67;2.60;;;6.90;1.00;;;;;;5091233;28;20462;-70
2021/01/30 03:02:22;;;;;;;56.40;3.20;;;6.90;1.00;;;;;;5091364;28;20454;-70
2021/01/30 03:04:50;;;;;;;56.65;2.40;;;6.80;1.00;;;;;;5091572;28;20877;-70
2021/01/30 03:07:55;;;;;;;56.20;2.25;;;6.80;1.00;;;;;;5091485;28;20202;-70
2021/01/30 03:10:28;;;;;;;56.27;2.37;;;6.70;1.00;;;;;;5091394;28;20216;-70
2021/01/30 03:12:59;;;;;;;55.97;2.33;;;6.70;1.00;;;;;;5091325;28;20444;-70
2021/01/30 03:15:32;;;;;;;55.58;2.30;;;6.70;1.00;;;;;;5091599;28;20206;-70
2021/01/30 03:18:01;;;;;;;60.00;2.37;;;6.60;1.00;;;;;;5091696;28;20304;-70
2021/01/30 03:20:30;;;;;;;55.90;2.27;;;6.60;1.00;;;;;;5093263;28;20524;-69
2021/01/30 03:22:59;;;;;;;56.63;2.30;;;6.60;1.00;;;;;;5095437;28;20447;-70
2021/01/30 03:25:28;;;;;;;55.90;2.30;;;6.60;1.00;;;;;;5094397;28;20584;-70
2021/01/30 03:27:56;;;;;;;56.45;2.50;;;6.60;1.00;;;;;;5095404;28;20204;-70
2021/01/30 03:30:23;;;;;;;55.35;2.05;;;6.60;1.00;;;;;;5095308;28;20208;-70
2021/01/30 03:32:50;;;;;;;56.90;2.30;;;6.60;1.00;;;;;;5095031;28;20215;-70
2021/01/30 03:35:18;;;;;;;55.80;2.25;;;6.60;1.00;;;;;;5094866;28;20844;-70
2021/01/30 03:37:45;;;;;;;55.50;2.10;;;6.60;1.00;;;;;;5095384;28;20675;-70
2021/01/30 03:40:13;;;;;;;57.35;3.00;;;6.60;1.00;;;;;;5095344;28;20575;-70
2021/01/30 03:42:40;;;;;;;57.42;2.15;;;6.60;1.00;;;;;;5095162;28;20215;-70
2021/01/30 03:45:10;;;;;;;55.13;2.00;;;6.50;1.00;;;;;;5094964;28;20720;-69
2021/01/30 03:47:36;;;;;;;55.07;1.90;;;6.60;1.00;;;;;;5094857;28;20482;-70
2021/01/30 03:50:03;;;;;;;54.87;2.10;;;6.60;1.00;;;;;;5094935;28;20463;-69
2021/01/30 03:52:29;;;;;;;54.93;2.00;;;6.50;1.00;;;;;;5094799;28;20454;-70
2021/01/30 03:54:56;;;;;;;55.60;2.10;;;6.50;1.00;;;;;;5091198;28;20847;-70
2021/01/30 03:57:23;;;;;;;56.07;2.37;;;6.60;1.00;;;;;;5074566;28;20452;-70
2021/01/30 03:59:50;;;;;;;54.90;2.20;;;6.60;1.00;;;;;;5074420;28;20443;-69
2021/01/30 04:02:16;;;;;;;56.50;2.27;;;6.50;1.00;;;;;;5074086;28;20455;-69
2021/01/30 04:04:44;;;;;;;56.25;2.63;;;6.50;1.00;;;;;;5074358;28;20464;-69
2021/01/30 04:07:11;;;;;;;55.80;2.10;;;6.50;1.00;;;;;;5074561;28;20565;-69
2021/01/30 04:09:38;;;;;;;55.88;2.33;;;6.40;1.00;;;;;;5074309;28;20535;-69
2021/01/30 04:12:05;;;;;;;56.58;2.30;;;6.30;1.00;;;;;;5074287;28;20237;-69
2021/01/30 04:14:33;;;;;;;59.07;2.47;;;6.30;1.00;;;;;;5074174;28;20265;-69
2021/01/30 04:16:59;;;;;;;58.00;2.40;;;6.30;1.00;;;;;;5074069;28;20453;-69
2021/01/30 04:19:26;;;;;;;56.80;2.50;;;6.30;1.00;;;;;;5074309;28;20444;-69
2021/01/30 04:21:52;;;;;;;58.30;2.40;;;6.30;1.00;;;;;;5073953;28;20258;-70
2021/01/30 04:24:19;;;;;;;55.50;2.30;;;6.20;1.00;;;;;;5074143;28;20531;-70
2021/01/30 04:26:46;;;;;;;57.60;2.43;;;6.20;1.00;;;;;;5080668;28;20940;-69
2021/01/30 04:29:13;;;;;;;56.65;2.40;;;6.30;1.00;;;;;;5093926;28;20905;-70
2021/01/30 04:31:41;;;;;;;56.17;2.60;;;6.30;1.00;;;;;;5093190;28;20205;-69
2021/01/30 04:34:07;;;;;;;58.30;2.72;;;6.20;1.00;;;;;;5094008;28;20299;-70
2021/01/30 04:36:34;;;;;;;57.33;2.45;;;6.20;1.00;;;;;;5094102;28;20272;-70
2021/01/30 04:39:00;;;;;;;56.67;2.50;;;6.30;1.00;;;;;;5094230;28;20244;-69
2021/01/30 04:41:40;;;;;;;55.27;2.37;;;6.30;1.00;;;;;;5094111;28;20476;-69
2021/01/30 04:44:11;;;;;;;56.80;2.53;;;6.20;1.00;;;;;;5093981;28;20508;-70
2021/01/30 04:46:51;;;;;;;55.80;2.10;;;6.20;1.00;;;;;;5093701;28;20674;-70
2021/01/30 04:49:26;;;;;;;55.37;2.73;;;6.20;1.00;;;;;;5093844;28;20701;-70
2021/01/30 04:51:57;;;;;;;57.40;2.90;;;6.20;1.00;;;;;;5093734;28;20443;-70
2021/01/30 04:54:35;;;;;;;56.50;2.53;;;6.30;1.00;;;;;;5093753;28;20681;-70
2021/01/30 04:57:16;;;;;;;55.80;2.27;;;6.30;1.00;;;;;;5092493;28;20444;-70
2021/01/30 04:59:55;;;;;;;60.37;2.47;;;6.20;1.00;;;;;;5078621;28;20448;-69
2021/01/30 05:02:35;;;;;;;55.97;2.40;;;6.30;1.00;;;;;;5093583;28;20439;-70
2021/01/30 05:05:03;;;;;;;56.00;2.57;;;6.30;1.00;;;;;;5093790;28;20226;-70
2021/01/30 05:07:36;;;;;;;56.37;2.60;;;6.30;1.00;;;;;;5093704;28;20497;-70
2021/01/30 05:10:10;;;;;;;57.70;2.88;;;6.30;1.00;;;;;;5093951;28;20442;-70
2021/01/30 05:12:43;;;;;;;56.17;2.40;;;6.30;1.00;;;;;;5093317;28;20205;-70
2021/01/30 05:15:16;;;;;;;57.53;2.40;;;6.30;1.00;;;;;;5093147;28;20224;-70
2021/01/30 05:17:52;;;;;;;56.50;2.42;;;6.30;1.00;;;;;;5093593;28;20215;-70
2021/01/30 05:20:19;;;;;;;58.17;3.10;;;6.30;1.00;;;;;;5093369;28;20220;-70
2021/01/30 05:22:48;;;;;;;57.00;2.72;;;6.30;1.00;;;;;;5093142;28;20219;-70
2021/01/30 05:25:18;;;;;;;61.37;2.57;;;6.30;1.00;;;;;;5093093;28;20225;-71
2021/01/30 05:27:57;;;;;;;58.08;2.97;;;6.20;1.00;;;;;;5093123;28;20509;-70
2021/01/30 05:30:34;;;;;;;57.13;2.47;;;6.30;1.00;;;;;;5091962;28;20201;-70
2021/01/30 05:33:28;;;;;;;56.85;2.67;;;6.30;1.00;;;;;;5093062;28;20461;-70
2021/01/30 05:36:05;;;;;;;60.17;3.33;;;6.40;1.00;;;;;;5093189;28;20210;-70
2021/01/30 05:38:53;;;;;;;56.20;2.58;;;6.40;1.00;;;;;;5093263;28;20453;-70
2021/01/30 05:41:31;;;;;;;57.40;2.97;;;6.40;1.00;;;;;;5093164;28;20226;-70
2021/01/30 05:44:04;;;;;;;56.85;2.65;;;6.40;1.00;;;;;;5092546;28;21205;-71
2021/01/30 05:46:32;;;;;;;58.80;2.60;;;6.50;1.00;;;;;;5092829;28;20288;-71
2021/01/30 05:49:04;;;;;;;60.08;2.60;;;6.50;1.00;;;;;;5093126;28;20454;-69
2021/01/30 05:51:36;;;;;;;63.50;3.15;;;6.50;1.00;;;;;;5093070;28;20205;-70
2021/01/30 05:54:03;;;;;;;61.95;3.10;;;6.50;1.00;;;;;;5092703;28;20225;-70
2021/01/30 05:56:37;;;;;;;59.30;3.13;;;6.50;1.00;;;;;;5092833;28;20266;-69
2021/01/30 05:59:05;;;;;;;58.43;3.33;;;6.50;1.00;;;;;;5092691;28;20214;-70
2021/01/30 06:01:32;;;;;;;58.30;2.50;;;6.50;1.00;;;;;;5092859;28;20487;-70
2021/01/30 06:04:02;;;;;;;61.20;3.00;;;6.40;1.00;;;;;;5092463;28;20520;-70
2021/01/30 06:06:32;;;;;;;58.10;2.37;;;6.40;1.00;;;;;;5092691;28;20633;-69
2021/01/30 06:09:01;;;;;;;56.78;2.53;;;6.50;1.00;;;;;;5092918;28;20448;-70
2021/01/30 06:11:28;;;;;;;57.83;3.13;;;6.50;1.00;;;;;;5092556;28;20278;-70
2021/01/30 06:13:57;;;;;;;57.10;3.10;;;6.50;1.00;;;;;;5092425;28;20232;-69
2021/01/30 06:16:42;;;;;;;57.05;2.85;;;6.50;1.00;;;;;;5092584;28;20595;-71
2021/01/30 06:19:16;;;;;;;65.20;2.77;;;6.40;1.00;;;;;;5092274;28;20607;-70
2021/01/30 06:21:43;;;;;;;59.40;3.03;;;6.30;1.00;;;;;;5092365;28;20930;-69
2021/01/30 06:24:11;;;;;;;58.70;2.73;;;6.30;1.00;;;;;;5092439;28;20555;-70
2021/01/30 06:26:43;;;;;;;61.58;3.22;;;6.30;1.00;;;;;;5092530;28;20830;-70
2021/01/30 06:29:26;;;;;;;57.90;2.77;;;6.30;1.00;;;;;;5092414;28;20588;-70
2021/01/30 06:31:53;;;;;;;58.10;2.60;;;6.30;1.00;;;;;;5092273;28;20467;-70
2021/01/30 06:34:30;;;;;;;59.53;3.42;;;6.20;1.00;;;;;;5091898;28;20713;-71
2021/01/30 06:36:58;;;;;;;58.10;2.95;;;6.20;1.00;;;;;;5092397;28;20213;-70
2021/01/30 06:39:31;;;;;;;62.67;2.97;;;6.20;1.00;;;;;;5092177;28;20254;-70
2021/01/30 06:42:03;;;;;;;57.38;2.78;;;6.20;1.00;;;;;;5092077;28;20238;-70
2021/01/30 06:44:31;;;;;;;59.13;3.08;;;6.10;1.00;;;;;;5092006;28;20232;-70
2021/01/30 06:47:03;;;;;;;62.05;2.92;;;6.10;1.00;;;;;;5091892;28;20692;-69
2021/01/30 06:49:34;;;;;;;59.78;3.15;;;6.10;1.00;;;;;;5091955;28;20676;-70
2021/01/30 06:52:06;;;;;;;61.38;3.03;;;6.10;1.00;;;;;;5091895;28;20198;-70
2021/01/30 06:54:33;;;;;;;59.88;3.03;;;6.00;1.00;;;;;;5091236;28;20266;-71
2021/01/30 06:57:06;;;;;;;62.72;4.30;;;6.00;1.00;;;;;;5091800;28;20245;-69
2021/01/30 06:59:36;;;;;;;61.47;3.15;;;6.00;1.00;;;;;;5092175;28;20198;-70
2021/01/30 07:02:11;;;;;;;59.90;3.23;;;6.10;1.00;;;;;;5091649;28;20223;-70
2021/01/30 07:05:18;;;;;;;65.63;3.47;;;6.00;1.00;;;;;;5091960;28;20474;-70
2021/01/30 07:08:07;;;;;;;59.63;2.80;;;6.00;1.00;;;;;;5091739;28;20970;-70
2021/01/30 07:10:44;;;;;;;62.13;4.00;;;6.00;1.00;;;;;;5091709;28;20670;-69
2021/01/30 07:13:36;;;;;;;62.20;3.60;;;6.00;1.00;;;;;;5091750;28;20545;-75
2021/01/30 07:16:13;;;;;;;61.23;3.77;;;6.00;1.00;;;;;;5091661;28;20456;-69
2021/01/30 07:18:51;;;;;;;61.47;3.90;;;6.00;1.00;;;;;;5092051;28;20509;-69
2021/01/30 07:21:21;;;;;;;64.18;3.90;;;6.10;1.00;;;;;;5091799;28;20259;-69
2021/01/30 07:24:12;;;;;;;58.83;2.90;;;6.10;1.00;;;;;;5091459;28;20326;-68
2021/01/30 07:26:41;;;;;;;59.80;3.37;;;6.10;1.00;;;;;;5091574;28;20685;-70
2021/01/30 07:29:14;;;;;;;63.73;3.47;;;6.10;1.00;;;;;;5091934;28;20469;-70
2021/01/30 07:31:45;;;;;;;58.45;3.53;;;6.20;1.00;;;;;;5091727;28;20797;-68
2021/01/30 07:34:18;;;;;;;58.67;3.25;;;6.20;1.00;;;;;;5091259;28;20725;-69
2021/01/30 07:36:54;;;;;;;63.80;3.35;;;6.30;1.00;;;;;;5091532;28;20205;-70
2021/01/30 07:39:35;;;;;;;59.37;3.63;;;6.30;1.00;;;;;;5091736;28;20210;-69
2021/01/30 07:42:05;;;;;;;60.10;3.40;;;6.40;1.00;;;;;;5091299;28;20563;-70
2021/01/30 07:44:40;;;;;;;59.00;3.40;;;6.40;1.00;;;;;;5091525;28;20837;-70
2021/01/30 07:47:14;;;;;;;59.87;3.40;;;6.40;1.00;;;;;;5091455;28;20453;-69
2021/01/30 07:49:46;;;;;;;64.63;4.00;;;6.40;1.00;;;;;;5091698;28;20448;-69
2021/01/30 07:52:19;;;;;;;63.80;3.87;;;6.40;1.00;;;;;;5091473;28;20452;-68
2021/01/30 07:54:50;;;;;;;59.05;4.35;;;6.50;1.00;;;;;;5091310;28;20471;-70
2021/01/30 07:57:56;;;;;;;60.70;3.43;;;6.50;1.00;;;;;;5091432;28;20202;-69
2021/01/30 08:00:33;;;;;;;63.53;3.97;;;6.50;1.00;;;;;;5091524;28;20449;-69
2021/01/30 08:03:23;;;;;;;62.07;3.97;;;6.60;1.00;;;;;;5091338;28;20886;-70
2021/01/30 08:06:08;;;;;;;68.23;4.10;;;6.60;1.00;;;;;;5092183;28;20497;-71
2021/01/30 08:08:41;;;;;;;69.43;4.13;;;6.70;1.00;;;;;;5095224;28;20471;-71
2021/01/30 08:11:18;;;;;;;64.33;3.83;;;6.80;1.00;;;;;;5095276;28;20456;-70
2021/01/30 08:13:54;;;;;;;60.27;3.70;;;6.80;1.00;;;;;;5095062;28;20470;-71
2021/01/30 08:16:30;;;;;;;60.37;4.37;;;6.90;1.00;;;;;;5094894;28;20455;-71
2021/01/30 08:19:02;;;;;;;63.80;3.70;;;7.00;1.00;;;;;;5094910;28;20452;-71
2021/01/30 08:21:35;;;;;;;59.90;3.20;;;7.00;1.00;;;;;;5094977;28;20557;-71
2021/01/30 08:24:11;;;;;;;63.43;3.93;;;7.10;1.00;;;;;;5094582;28;20980;-71
2021/01/30 08:26:41;;;;;;;63.30;3.47;;;7.20;1.00;;;;;;5094596;28;20511;-70
2021/01/30 08:29:12;;;;;;;64.63;3.83;;;7.30;1.00;;;;;;5094572;28;20488;-70
2021/01/30 08:31:41;;;;;;;63.50;4.23;;;7.30;1.00;;;;;;5095080;28;20501;-70
2021/01/30 08:34:12;;;;;;;69.77;4.40;;;7.40;1.00;;;;;;5094388;28;20507;-71
2021/01/30 08:36:40;;;;;;;63.60;4.30;;;7.40;1.00;;;;;;5093762;28;20531;-71
2021/01/30 08:39:19;;;;;;;61.10;3.80;;;7.50;1.00;;;;;;5091447;28;20912;-71
2021/01/30 08:41:48;;;;;;;61.20;3.60;;;7.50;1.00;;;;;;5092656;28;20541;-70
2021/01/30 08:44:54;;;;;;;64.23;5.10;;;7.60;1.00;;;;;;5092345;28;20552;-71
2021/01/30 08:47:24;;;;;;;64.67;4.20;;;7.60;1.00;;;;;;5092629;28;20480;-70
2021/01/30 08:50:11;;;;;;;65.70;4.07;;;7.60;1.00;;;;;;5092217;28;20921;-70
2021/01/30 08:52:41;;;;;;;66.47;4.30;;;7.50;1.00;;;;;;5093204;28;20824;-70
2021/01/30 08:55:49;;;;;;;62.97;3.90;;;7.50;1.00;;;;;;5094169;28;20804;-71
2021/01/30 08:58:52;;;;;;;62.17;3.80;;;7.60;1.00;;;;;;5094567;28;20948;-71
2021/01/30 09:01:46;;;;;;;64.33;3.77;;;7.60;1.00;;;;;;5094069;28;20898;-71
2021/01/30 09:04:43;;;;;;;59.77;3.37;;;7.60;1.00;;;;;;5091964;28;20472;-70
2021/01/30 09:07:37;;;;;;;61.60;4.00;;;7.70;1.00;;;;;;5094075;28;20502;-71
2021/01/30 09:10:30;;;;;;;61.23;4.63;;;7.70;1.00;;;;;;5093948;28;20445;-71
2021/01/30 09:12:59;;;;;;;64.67;3.87;;;7.70;1.00;;;;;;5079369;28;20881;-71
2021/01/30 09:15:54;;;;;;;65.47;4.43;;;7.70;1.00;;;;;;5093688;28;20985;-71
2021/01/30 09:18:31;;;;;;;63.70;4.43;;;7.80;1.00;;;;;;5093056;28;20811;-71
2021/01/30 09:21:02;;;;;;;64.33;4.50;;;7.90;1.00;;;;;;5093568;28;20936;-71
2021/01/30 09:23:41;;;;;;;64.10;4.50;;;7.90;1.00;;;;;;5093706;28;20465;-71
2021/01/30 09:26:15;;;;;;;62.17;3.50;;;7.90;1.00;;;;;;5093388;28;20464;-70
2021/01/30 09:28:43;;;;;;;59.30;3.60;;;7.90;1.00;;;;;;5093537;28;20884;-71
2021/01/30 09:31:15;;;;;;;60.23;3.63;;;7.90;1.00;;;;;;5093410;28;20478;-69
2021/01/30 09:33:47;;;;;;;64.53;4.10;;;8.00;1.00;;;;;;5093102;28;21014;-71
2021/01/30 09:36:16;;;;;;;64.83;4.50;;;8.00;1.00;;;;;;5093545;28;20881;-71
2021/01/30 09:38:44;;;;;;;64.27;5.03;;;8.00;1.00;;;;;;5093427;28;20933;-70
2021/01/30 09:41:20;;;;;;;63.13;3.93;;;8.10;1.00;;;;;;5093334;28;20485;-70
2021/01/30 09:43:48;;;;;;;69.50;5.20;;;8.20;1.00;;;;;;5092998;28;20468;-70
2021/01/30 09:46:19;;;;;;;62.70;4.53;;;8.20;1.00;;;;;;5093209;28;20453;-70
2021/01/30 09:48:47;;;;;;;66.27;4.43;;;8.20;1.00;;;;;;5093245;28;20453;-70
2021/01/30 09:51:13;;;;;;;62.90;5.10;;;8.20;1.00;;;;;;5093102;28;20830;-69
2021/01/30 09:53:48;;;;;;;64.57;4.00;;;8.30;1.00;;;;;;5092748;28;20476;-71
2021/01/30 09:56:17;;;;;;;63.40;5.07;;;8.40;1.00;;;;;;5092775;28;20948;-71
2021/01/30 09:58:51;;;;;;;62.27;4.00;;;8.50;1.00;;;;;;5092867;28;20453;-71
2021/01/30 10:01:26;;;;;;;60.63;4.83;;;8.50;1.00;;;;;;5093000;28;20485;-71
2021/01/30 10:03:53;;;;;;;60.90;4.13;;;8.60;1.00;;;;;;5093992;28;20559;-69
2021/01/30 10:06:28;;;;;;;60.77;4.30;;;8.60;1.00;;;;;;5094129;28;20941;-69
2021/01/30 10:08:54;;;;;;;64.27;3.97;;;8.70;1.00;;;;;;5094597;28;20580;-71
2021/01/30 10:11:22;;;;;;;64.60;3.63;;;8.80;1.00;;;;;;5095816;28;20532;-69
2021/01/30 10:13:55;;;;;;;65.00;3.80;;;8.90;1.00;;;;;;5092921;28;20561;-68
2021/01/30 10:16:25;;;;;;;64.53;3.80;;;8.90;1.00;;;;;;5092658;28;20486;-69
2021/01/30 10:18:55;;;;;;;62.23;4.60;;;9.00;1.00;;;;;;5093227;28;20540;-71
2021/01/30 10:21:32;;;;;;;64.17;4.60;;;9.10;1.00;;;;;;5093580;28;20478;-71
2021/01/30 10:24:11;;;;;;;69.53;5.10;;;9.10;1.00;;;;;;5092473;28;20505;-71
2021/01/30 10:26:37;;;;;;;63.60;4.40;;;9.20;1.00;;;;;;5092484;28;20550;-71
2021/01/30 10:29:06;;;;;;;62.60;4.60;;;9.20;1.00;;;;;;5091667;28;20450;-71
2021/01/30 10:31:37;;;;;;;65.33;4.73;;;9.10;1.00;;;;;;5091001;28;20447;-71
2021/01/30 10:34:10;;;;;;;63.33;4.60;;;9.10;1.00;;;;;;5091738;28;20570;-71
2021/01/30 10:36:38;;;;;;;61.90;3.60;;;9.20;1.00;;;;;;5092760;28;20447;-71
2021/01/30 10:39:07;;;;;;;58.80;4.00;;;9.20;1.00;;;;;;5092578;28;20456;-71
2021/01/30 10:41:34;;;;;;;61.60;3.43;;;9.00;1.00;;;;;;5092500;28;20482;-71
2021/01/30 10:44:05;;;;;;;61.07;3.63;;;8.90;1.00;;;;;;5092228;28;20526;-71
2021/01/30 10:46:40;;;;;;;66.33;4.60;;;9.00;1.00;;;;;;5092810;28;20833;-71
2021/01/30 10:49:09;;;;;;;67.23;4.20;;;9.20;1.00;;;;;;5092606;28;20452;-69
2021/01/30 10:51:36;;;;;;;60.33;3.30;;;9.30;1.00;;;;;;5092649;28;20442;-71
2021/01/30 10:54:21;;;;;;;67.23;4.03;;;9.40;1.00;;;;;;5092375;28;20843;-71
2021/01/30 10:57:02;;;;;;;57.07;2.60;;;9.50;1.00;;;;;;5092268;28;20532;-72
2021/01/30 10:59:29;;;;;;;58.27;3.13;;;9.40;1.00;;;;;;5092162;28;20715;-71
2021/01/30 11:01:58;;;;;;;58.23;3.20;;;9.30;1.00;;;;;;5092038;28;20481;-71
2021/01/30 11:04:26;;;;;;;58.77;3.33;;;9.10;1.00;;;;;;5092178;28;20470;-71
2021/01/30 11:06:58;;;;;;;57.97;3.20;;;9.00;1.00;;;;;;5092377;28;20451;-71
2021/01/30 11:09:27;;;;;;;60.10;3.47;;;8.90;1.00;;;;;;5092217;28;20446;-70
2021/01/30 11:12:08;;;;;;;60.90;2.83;;;8.90;1.00;;;;;;5091928;28;20499;-70
2021/01/30 11:14:36;;;;;;;60.63;2.80;;;8.80;1.00;;;;;;5091932;28;20494;-70
2021/01/30 11:17:04;;;;;;;59.67;2.83;;;8.70;1.00;;;;;;5091892;28;20457;-69
2021/01/30 11:19:41;;;;;;;57.50;2.73;;;8.60;1.00;;;;;;5092027;28;20442;-71
2021/01/30 11:22:17;;;;;;;60.80;3.17;;;8.60;1.00;;;;;;5092429;28;20488;-71
2021/01/30 11:24:47;;;;;;;58.20;2.90;;;8.60;1.00;;;;;;5093132;28;20516;-70
2021/01/30 11:27:30;;;;;;;57.97;2.97;;;8.50;1.00;;;;;;5093406;28;20450;-70
2021/01/30 11:29:56;;;;;;;58.73;3.00;;;8.50;1.00;;;;;;5093591;28;20449;-70
2021/01/30 11:32:25;;;;;;;59.23;3.27;;;8.50;1.00;;;;;;5092573;28;20991;-70
2021/01/30 11:34:56;;;;;;;62.13;3.07;;;8.60;1.00;;;;;;5092289;28;20477;-70
2021/01/30 11:37:23;;;;;;;60.47;2.87;;;8.50;1.00;;;;;;5092169;28;20884;-70
2021/01/30 11:39:50;;;;;;;58.37;2.70;;;8.50;1.00;;;;;;5092382;28;20465;-69
2021/01/30 11:42:16;;;;;;;57.37;2.50;;;8.50;1.00;;;;;;5095266;28;20580;-69
2021/01/30 11:44:42;;;;;;;58.47;2.80;;;8.50;1.00;;;;;;5095848;28;20475;-70
2021/01/30 11:47:09;;;;;;;57.90;2.80;;;8.50;1.00;;;;;;5096053;28;20541;-69
2021/01/30 11:49:36;;;;;;;57.93;2.70;;;8.50;1.00;;;;;;5095741;28;20533;-68
2021/01/30 11:52:02;;;;;;;58.43;3.20;;;8.60;1.00;;;;;;5095746;28;20931;-69
2021/01/30 11:54:28;;;;;;;59.07;2.90;;;8.60;1.00;;;;;;5095774;28;20912;-69
2021/01/30 11:56:55;;;;;;;58.87;3.00;;;8.60;1.00;;;;;;5095499;28;20452;-69
2021/01/30 11:59:21;;;;;;;57.50;2.60;;;8.60;1.00;;;;;;5095334;28;20457;-68
2021/01/30 12:01:48;;;;;;;57.37;3.23;;;8.60;1.00;;;;;;5095640;28;20485;-68
2021/01/30 12:04:14;;;;;;;60.00;3.03;;;8.70;1.00;;;;;;5095335;28;20473;-69
2021/01/30 12:06:42;;;;;;;57.80;2.60;;;8.70;1.00;;;;;;5095321;28;20449;-69
2021/01/30 12:09:08;;;;;;;59.37;2.87;;;8.70;1.00;;;;;;5095263;28;20594;-69
2021/01/30 12:11:35;;;;;;;56.27;2.57;;;8.70;1.00;;;;;;5095437;28;20448;-69
2021/01/30 12:14:01;;;;;;;57.70;3.07;;;8.70;1.00;;;;;;5095115;28;20466;-68
2021/01/30 12:16:28;;;;;;;58.70;3.03;;;8.80;1.00;;;;;;5095565;28;20457;-69
2021/01/30 12:18:54;;;;;;;56.40;2.67;;;8.80;1.00;;;;;;5095536;28;20536;-69
2021/01/30 12:21:21;;;;;;;59.53;3.07;;;8.80;1.00;;;;;;5095543;28;20477;-69
2021/01/30 12:23:48;;;;;;;59.10;3.10;;;8.80;1.00;;;;;;5095860;28;20599;-69
2021/01/30 12:26:21;;;;;;;57.60;2.70;;;8.80;1.00;;;;;;5095865;28;20482;-68
2021/01/30 12:28:47;;;;;;;60.93;3.00;;;8.90;1.00;;;;;;5095304;28;20450;-69
2021/01/30 12:31:14;;;;;;;59.10;3.77;;;8.90;1.00;;;;;;5095290;28;20441;-70
2021/01/30 12:33:40;;;;;;;57.03;3.13;;;8.90;1.00;;;;;;5092053;28;21041;-68
2021/01/30 12:36:07;;;;;;;58.97;3.30;;;8.90;1.00;;;;;;5095904;28;20548;-69
2021/01/30 12:38:34;;;;;;;58.77;3.20;;;8.90;1.00;;;;;;5095945;28;20453;-70
2021/01/30 12:41:02;;;;;;;63.43;3.67;;;8.90;1.00;;;;;;5095158;28;20576;-69
2021/01/30 12:43:29;;;;;;;61.30;3.70;;;8.90;1.00;;;;;;5095421;28;20471;-68
2021/01/30 12:45:55;;;;;;;60.80;3.30;;;8.90;1.00;;;;;;5095859;28;20454;-70
2021/01/30 12:48:22;;;;;;;59.03;3.60;;;8.90;1.00;;;;;;5095996;28;20555;-69
2021/01/30 12:50:48;;;;;;;57.70;3.00;;;8.90;1.00;;;;;;5095442;28;20849;-69
2021/01/30 12:53:14;;;;;;;59.80;2.87;;;8.80;1.00;;;;;;5093453;28;20983;-70
2021/01/30 12:55:41;;;;;;;58.90;3.30;;;8.60;1.00;;;;;;5094340;28;20457;-69
2021/01/30 12:58:17;;;;;;;60.37;3.53;;;8.60;1.00;;;;;;5094629;28;20936;-69
2021/01/30 13:00:43;;;;;;;60.57;3.10;;;8.50;1.00;;;;;;5094742;28;20452;-69
2021/01/30 13:03:10;;;;;;;58.07;3.00;;;8.50;1.00;;;;;;5094196;28;20484;-69
2021/01/30 13:05:36;;;;;;;59.93;3.10;;;8.30;1.00;;;;;;5094385;28;20449;-69
2021/01/30 13:08:03;;;;;;;63.77;3.80;;;8.20;1.00;;;;;;5094375;28;20475;-69
2021/01/30 13:10:30;;;;;;;66.77;4.63;;;8.10;1.00;;;;;;5094120;28;20452;-69
2021/01/30 13:12:56;;;;;;;61.27;3.60;;;8.00;1.00;;;;;;5094290;28;20445;-69
2021/01/30 13:15:23;;;;;;;58.97;3.77;;;8.00;1.00;;;;;;5094181;28;20511;-69
2021/01/30 13:17:50;;;;;;;60.53;3.53;;;7.90;1.00;;;;;;5094591;28;20453;-69
2021/01/30 13:20:18;;;;;;;59.90;3.57;;;7.90;1.00;;;;;;5094304;28;20445;-69
2021/01/30 13:22:45;;;;;;;62.87;3.97;;;7.90;1.00;;;;;;5093932;28;20572;-69